Time,TemperatureF,DewpointF,PressureIn,WindDirection,WindDirectionDegrees,WindSpeedMPH,WindSpeedGustMPH,Humidity,HourlyPrecipIn,Conditions,Clouds,dailyrainin,SoftwareType,DateUTC
2013-08-12 00:02:00,52.0,-99.9,-100.00,East,79,1.0,1.0,-999,-99.99,,,-99.99,,2013-08-12 06:02:00,
2013-08-12 00:52:00,48.0,-99.9,-100.00,ENE,77,1.0,1.0,-999,-99.99,,,-99.99,,2013-08-12 06:52:00,
2013-08-12 01:01:00,48.0,-99.9,-100.00,ENE,77,1.0,1.0,-999,-99.99,,,-99.99,,2013-08-12 07:01:00,
2013-08-12 01:53:00,50.0,-99.9,-100.00,NNE,16,1.0,2.0,-999,-99.99,,,-99.99,,2013-08-12 07:53:00,
2013-08-12 02:02:00,50.0,-99.9,-100.00,NNE,16,1.0,2.0,-999,-99.99,,,-99.99,,2013-08-12 08:02:00,
2013-08-12 02:53:00,46.0,-99.9,-100.00,East,94,1.0,1.0,-999,-99.99,,,-99.99,,2013-08-12 08:53:00,
2013-08-12 03:02:00,46.0,-99.9,-100.00,East,94,1.0,1.0,-999,-99.99,,,-99.99,,2013-08-12 09:02:00,
2013-08-12 03:53:00,45.0,-99.9,-100.00,East,84,0.0,0.0,-999,-99.99,,,-99.99,,2013-08-12 09:53:00,
2013-08-12 04:02:00,45.0,-99.9,-100.00,East,84,0.0,0.0,-999,-99.99,,,-99.99,,2013-08-12 10:02:00,
2013-08-12 06:52:00,45.0,-99.9,-100.00,NE,53,2.0,2.0,-999,-99.99,,,-99.99,,2013-08-12 12:52:00,
2013-08-12 07:02:00,45.0,-99.9,-100.00,NE,53,2.0,2.0,-999,-99.99,,,-99.99,,2013-08-12 13:02:00,
2013-08-12 07:53:00,48.0,-99.9,-100.00,NNE,15,3.0,3.0,-999,-99.99,,,-99.99,,2013-08-12 13:53:00,
2013-08-12 08:02:00,48.0,-99.9,-100.00,NNE,15,3.0,3.0,-999,-99.99,,,-99.99,,2013-08-12 14:02:00,
2013-08-12 08:53:00,57.0,-99.9,-100.00,NNE,17,3.0,3.0,-999,-99.99,,,-99.99,,2013-08-12 14:53:00,
2013-08-12 09:00:00,61.0,-99.9,-100.00,East,96,4.0,6.0,-999,-99.99,,,-99.99,,2013-08-12 15:00:00,
2013-08-12 09:02:00,57.0,-99.9,-100.00,NNE,17,3.0,3.0,-999,-99.99,,,-99.99,,2013-08-12 15:02:00,
2013-08-12 09:52:00,61.0,-99.9,-100.00,East,96,4.0,6.0,-999,-99.99,,,-99.99,,2013-08-12 15:52:00,
2013-08-12 10:00:00,64.0,-99.9,-100.00,East,81,3.0,6.0,-999,-99.99,,,-99.99,,2013-08-12 16:00:00,
2013-08-12 10:53:00,64.0,-99.9,-100.00,East,81,3.0,6.0,-999,-99.99,,,-99.99,,2013-08-12 16:53:00,
2013-08-12 11:00:00,66.0,-99.9,-100.00,ENE,78,3.0,5.0,-999,-99.99,,,-99.99,,2013-08-12 17:00:00,
2013-08-12 11:52:00,66.0,-99.9,-100.00,ENE,78,3.0,5.0,-999,-99.99,,,-99.99,,2013-08-12 17:52:00,
2013-08-12 12:00:00,68.0,-99.9,-100.00,ENE,76,6.0,8.0,-999,-99.99,,,-99.99,,2013-08-12 18:00:00,
2013-08-12 12:52:00,68.0,-99.9,-100.00,ENE,76,6.0,8.0,-999,-99.99,,,-99.99,,2013-08-12 18:52:00,
2013-08-12 13:00:00,57.0,-99.9,-100.00,NNE,29,8.0,8.0,-999,-99.99,,,-99.99,,2013-08-12 19:00:00,
2013-08-12 13:52:00,57.0,-99.9,-100.00,NNE,29,8.0,8.0,-999,-99.99,,,-99.99,,2013-08-12 19:52:00,
2013-08-12 15:00:00,57.0,-99.9,-100.00,NNE,25,3.0,4.0,-999,-99.99,,,-99.99,,2013-08-12 21:00:00,
2013-08-12 15:52:00,57.0,-99.9,-100.00,NNE,25,3.0,4.0,-999,-99.99,,,-99.99,,2013-08-12 21:52:00,
2013-08-12 16:00:00,55.0,-99.9,-100.00,North,7,6.0,10.0,-999,-99.99,,,-99.99,,2013-08-12 22:00:00,
2013-08-12 16:53:00,55.0,-99.9,-100.00,North,7,6.0,10.0,-999,-99.99,,,-99.99,,2013-08-12 22:53:00,
2013-08-12 18:00:00,59.0,-99.9,-100.00,North,1,11.0,14.0,-999,-99.99,,,-99.99,,2013-08-13 00:00:00,
2013-08-12 18:54:00,59.0,-99.9,-100.00,North,1,11.0,14.0,-999,-99.99,,,-99.99,,2013-08-13 00:54:00,
2013-08-12 19:00:00,55.0,-99.9,-100.00,NNE,25,10.0,11.0,-999,-99.99,,,-99.99,,2013-08-13 01:00:00,
2013-08-12 19:55:00,55.0,-99.9,-100.00,NNE,25,10.0,11.0,-999,-99.99,,,-99.99,,2013-08-13 01:55:00,
2013-08-12 20:00:00,54.0,-99.9,-100.00,North,0,3.0,5.0,-999,-99.99,,,-99.99,,2013-08-13 02:00:00,
2013-08-12 20:43:00,54.0,-99.9,-100.00,North,0,3.0,5.0,-999,-99.99,,,-99.99,,2013-08-13 02:43:00,
2013-08-12 20:52:00,54.0,-99.9,-100.00,North,0,3.0,5.0,-999,-99.99,,,-99.99,,2013-08-13 02:52:00,
2013-08-12 21:00:00,52.0,-99.9,-100.00,NNE,19,7.0,9.0,-999,-99.99,,,-99.99,,2013-08-13 03:00:00,
2013-08-12 21:44:00,52.0,-99.9,-100.00,NNE,19,7.0,9.0,-999,-99.99,,,-99.99,,2013-08-13 03:44:00,
2013-08-12 21:54:00,52.0,-99.9,-100.00,NNE,19,7.0,9.0,-999,-99.99,,,-99.99,,2013-08-13 03:54:00,
2013-08-12 22:00:00,50.0,-99.9,-100.00,NE,44,4.0,6.0,-999,-99.99,,,-99.99,,2013-08-13 04:00:00,
2013-08-12 22:42:00,50.0,-99.9,-100.00,NE,44,4.0,6.0,-999,-99.99,,,-99.99,,2013-08-13 04:42:00,
2013-08-12 22:53:00,50.0,-99.9,-100.00,NE,44,4.0,6.0,-999,-99.99,,,-99.99,,2013-08-13 04:53:00,
2013-08-12 23:43:00,50.0,-99.9,-100.00,ENE,70,0.0,0.0,-999,-99.99,,,-99.99,,2013-08-13 05:43:00,
2013-08-12 23:52:00,50.0,-99.9,-100.00,ENE,70,0.0,0.0,-999,-99.99,,,-99.99,,2013-08-13 05:52:00,